LiveATC.Net - Listen to live air traffic control over the Internet!

Find LiveATC Audio Streams


Airport/ARTCC Code

Frequency Search
(e.g., 124.400, 128.75)
Site-wide search
 


Browse LiveATC Feeds
Top 50 LiveATC Feeds
LiveATC Feed Map
Bad Weather Areas

LiveATC FAQ
Offer LiveATC feed
Contact LiveATC.net
Press Inquiries

LiveATC on iPhone
LiveATC on Android

Windows Phone
Windows 8/10

LiveATC Mobile
(Mobile browser)

ATC Audio Archives
Interesting Recordings

LiveATC Forums

Home Page
About LiveATC.net
Make a Donation
Terms of Use
Privacy Policy

Canadian Air Freqs

AIRMETs/SIGMETs

FAA Airport Status
Nat'l Airspace Status
Arrival Demand Charts


Server Software By:
Icecast.org
Liquidsoap

Select an area of interest:
U.S. Feeds: Class B Airports | Class C Airports | Class D/Other Airports | ARTCC (Centers)
International Feeds: Canada | Europe | Oceania | Asia | South America | North/Central America | Africa
Misc Feeds: HF Feeds
Search by ICAO/IATA airport code:   (e.g., kbos, kjfk, lax, eham, etc.)


Currently Available Live Feeds: 2341
Status Updated: Tue Jan 22 2019 03:10:01 UTC


NOTICE

Unauthorized use prohibited. See LiveATC.net Terms of Service

North and Central America Airport Feeds

 

MMAN Tower (Archives)
Monterrey, Mexico

Feed Status: UP
Listen in your browser - HTML5 player(in browser, HTML5)
Click here to listen with your own player(launches your MP3 player)

MMAN 220240Z 13002KT 10SM SKC 16/06 A2998

MMAN Flight Activity (Flightaware)

Listeners: 0 out of 1123 total

Monterrey Tower: 118.600

MMCU Twr/App (Archives)
Chihuahua, Mexico

Feed Status: UP
Listen in your browser - HTML5 player(in browser, HTML5)
Click here to listen with your own player(launches your MP3 player)

MMCU 220240Z 22012KT 10SM BKN070 20/M02 A2992 RMK SLP097 52010 993 8/070

MMCU Flight Activity (Flightaware)

Listeners: 0 out of 1123 total

Chihuahua Approach: 121.000
Chihuahua Tower: 118.400

MMGL Twr/App (Archives)
Guadalajara, Mexico

Feed Status: UP
Listen in your browser - HTML5 player(in browser, HTML5)
Click here to listen with your own player(launches your MP3 player)

MMGL 220244Z 16004KT 10SM SKC 16/03 A3015 RMK SLP

MMGL Flight Activity (Flightaware)

Listeners: 1 out of 1123 total

Guadalajara Approach: 120.800
Guadalajara Tower: 118.100

MMHO App/Dep (Archives)
Hermosillo, Mexico

Feed Status: UP
Listen in your browser - HTML5 player(in browser, HTML5)
Click here to listen with your own player(launches your MP3 player)

MMHO 220240Z 28004KT 10SM FEW100 SCT200 18/10 A2989 RMK SLP127 520

MMHO Flight Activity (Flightaware)

Listeners: 0 out of 1123 total

Hermosillo Approach/Departure: 121.400

MMHO Tower (Archives)
Hermosillo, Mexico

Feed Status: UP
Listen in your browser - HTML5 player(in browser, HTML5)
Click here to listen with your own player(launches your MP3 player)

MMHO 220240Z 28004KT 10SM FEW100 SCT200 18/10 A2989 RMK SLP127 520

MMHO Flight Activity (Flightaware)

Listeners: 0 out of 1123 total

Hermosillo Tower: 118.700

MMLP Twr/App/Center (Archives)
La Paz, Mexico

Feed Status: UP
Listen in your browser - HTML5 player(in browser, HTML5)
Click here to listen with your own player(launches your MP3 player)

MMLP 220242Z 18010KT 10SM BKN100 22/11 A2996 RMK SLP144

MMLP Flight Activity (Flightaware)

Listeners: 0 out of 1123 total

La Paz Approach: 120.600
La Paz Tower: 118.100
Mazatlan Center: 128.000
Mazatlan Center: 124.400
Mazatlan Center: 128.300
Mazatlan Center: 124.200
Mazatlan Center: 126.300
Mazatlan Center: 126.500
San Jose Approach: 120.900

Merida Center (West 123.75) (Archives)
Merida, Mexico

Feed Status: UP
Listen in your browser - HTML5 player(in browser, HTML5)
Click here to listen with your own player(launches your MP3 player)

MMID Flight Activity (Flightaware)

Listeners: 0 out of 1123 total

Merida Center (West): 123.750

Merida Center (West 125.8) (Archives)
Merida, Mexico

Feed Status: UP
Listen in your browser - HTML5 player(in browser, HTML5)
Click here to listen with your own player(launches your MP3 player)

MMID Flight Activity (Flightaware)

Listeners: 0 out of 1123 total

Merida Center (West): 125.800

MMMD Tower/Approach (Archives)
Merida, Mexico

Feed Status: UP
Listen in your browser - HTML5 player(in browser, HTML5)
Click here to listen with your own player(launches your MP3 player)

MMMD 220243Z 07004KT 7SM SKC 20/13 A3016 RMK SLP207 52010 983

MMMD Flight Activity (Flightaware)

Listeners: 0 out of 1123 total

Merida Approach: 121.200
Merida Tower: 118.300

MMMM Tower (Archives)
Morelia, Mexico

Feed Status: UP
Listen in your browser - HTML5 player(in browser, HTML5)
Click here to listen with your own player(launches your MP3 player)

MMMM 220240Z 23006KT 8SM SKC 15/00 A3022 RMK SLP152 52009 962

MMMM Flight Activity (Flightaware)

Listeners: 0 out of 1123 total

Morelia Tower: 118.500

MMMX Approach (Archives)
Mexico City, Mexico

Feed Status: UP
Listen in your browser - HTML5 player(in browser, HTML5)
Click here to listen with your own player(launches your MP3 player)

MMMX 220242Z 16004KT 11SM SKC 17/M04 A3031 NOSIG RMK SLP139 52016 970

MMMX Flight Activity (Flightaware)

Listeners: 2 out of 1123 total

Mexico City Approach: 121.200

MMMX Dep/Center (Archives)
Mexico City, Mexico

Feed Status: UP
Listen in your browser - HTML5 player(in browser, HTML5)
Click here to listen with your own player(launches your MP3 player)

MMMX 220242Z 16004KT 11SM SKC 17/M04 A3031 NOSIG RMK SLP139 52016 970

MMMX Flight Activity (Flightaware)

Listeners: 3 out of 1123 total

Mexico Center (Sector 1, NorthEast MEX): 126.600
Mexico Center (Sector 2, East MEX) : 128.000
Mexico Center (Sector 3, South MEX): 128.500
Mexico Center (Sector 4, SouthWest MEX): 123.000
Mexico Center (Sector 5, West MEX): 125.100
Mexico Center (Sector 6, North MEX): 126.000
Mexico City Departure (East): 120.500
Mexico City Departure (West): 129.100

MMMX Twr/App (Archives)
Mexico City, Mexico

Feed Status: UP
Listen in your browser - HTML5 player(in browser, HTML5)
Click here to listen with your own player(launches your MP3 player)

MMMX 220242Z 16004KT 11SM SKC 17/M04 A3031 NOSIG RMK SLP139 52016 970

MMMX Flight Activity (Flightaware)

Listeners: 2 out of 1123 total

Mexico City Approach: 121.200
Mexico City Final Approach: 119.750
Mexico City Helicopters: 118.150
Mexico City Terminal: 129.600
Mexico City Tower: 118.550

MMMY Tower/Approach (Archives)
Monterrey, Mexico

Feed Status: UP
Listen in your browser - HTML5 player(in browser, HTML5)
Click here to listen with your own player(launches your MP3 player)

MMMY 220241Z 12006KT 15SM SKC 15/// A2994

MMMY Flight Activity (Flightaware)

Listeners: 0 out of 1123 total

Monterrey Approach/Departure: 119.750
Monterrey Tower: 118.100

MMPC CTAF (Archives)
Pachuca, Mexico

Feed Status: UP
Listen in your browser - HTML5 player(in browser, HTML5)
Click here to listen with your own player(launches your MP3 player)

MMPC Flight Activity (Flightaware)

Listeners: 0 out of 1123 total

Pachuca CTAF/AFIS: 122.900

MMQT Tower
Queretaro, Mexico

Feed Status: DOWN
Offline since: 2018-12-11 00:02:02 UTC

MMQT 220240Z 33004KT 10SM SKC 15/M04 A3027

Queretaro Tower: 118.950

MMQT Tower/App (Archives)
Queretaro, Mexico

Feed Status: UP
Listen in your browser - HTML5 player(in browser, HTML5)
Click here to listen with your own player(launches your MP3 player)

MMQT 220240Z 33004KT 10SM SKC 15/M04 A3027

MMQT Flight Activity (Flightaware)

Listeners: 0 out of 1123 total

Queretaro Approach: 127.200
Queretaro Tower: 118.950

MMSP Gnd/Twr/App/Center (Archives)
San Luis Potosi, Mexico

Feed Status: UP
Listen in your browser - HTML5 player(in browser, HTML5)
Click here to listen with your own player(launches your MP3 player)

MMSP 220241Z 00000KT 10SM SKC 14/01 A3019 RMK SLP141 55002 991 FU

MMSP Flight Activity (Flightaware)

Listeners: 0 out of 1123 total

AMX Ground Ops: 131.000
Mexico Center (North, Sector 6): 126.000
Mexico Center (Northwest, Sector 7): 123.900
Mexico Center (West, Sector 5): 125.100
Potosi Approach: 127.500
Potosi Tower: 118.900
TAO Ground Ops: 133.600

MMTC Twr/App/Center (Archives)
Torreon, Mexico

Feed Status: UP
Listen in your browser - HTML5 player(in browser, HTML5)
Click here to listen with your own player(launches your MP3 player)

MMTC 220244Z 00000KT 10SM FEW110 23/01 A2992 RMK SLP081

MMTC Flight Activity (Flightaware)

Listeners: 0 out of 1123 total

Mazatlan Center: 124.200
Mazatlan Center: 124.400
Mazatlan Center: 128.000
Mexico Center: 123.900
Monterrey Center: 125.600
Monterrey Center: 125.425
Monterrey Center: 127.400
Torreon Approach: 119.500
Torreon Tower: 118.500

MMTJ Approach (Archives)
Tijuana, Mexico

Feed Status: UP
Listen in your browser - HTML5 player(in browser, HTML5)
Click here to listen with your own player(launches your MP3 player)

MMTJ 220248Z 00000KT 8SM SCT035 12/07 A3010 RMK SLP195 540

MMTJ Flight Activity (Flightaware)

Listeners: 0 out of 1123 total

Tijuana Approach: 120.300

MMTJ Twr/Ramp (Archives)
Tijuana, Mexico

Feed Status: UP
Listen in your browser - HTML5 player(in browser, HTML5)
Click here to listen with your own player(launches your MP3 player)

MMTJ 220248Z 00000KT 8SM SCT035 12/07 A3010 RMK SLP195 540

MMTJ Flight Activity (Flightaware)

Listeners: 0 out of 1123 total

Tijuana Ramp: 126.100
Tijuana Tower: 118.100

MUFH Havana FIR (App/Center) (Archives)
Havana, Cuba

Feed Status: UP
Listen in your browser - HTML5 player(in browser, HTML5)
Click here to listen with your own player(launches your MP3 player)

MUFH Flight Activity (Flightaware)

Listeners: 1 out of 1123 total

Hava Approach: 120.300
Havana Center: 120.250
Havana Center: 123.700
Havana Center: 124.550
Havana Center: 133.700
Havana Center: 135.100

TBPB Gnd/Twr/Radar/Center (Archives)
Bridgetown, Barbados

Feed Status: UP
Listen in your browser - HTML5 player(in browser, HTML5)
Click here to listen with your own player(launches your MP3 player)

TBPB 220200Z 08017KT 9999 -SHRA SCT016 BKN035 23/21 Q1017 NOSIG

TBPB Flight Activity (Flightaware)

Listeners: 1 out of 1123 total

Adams Approach/Departure: 129.350
Adams Approach/Departure: 128.850
Adams Ground: 121.900
Adams Tower: 118.700
Piarco Center: 123.700

TXKF Tower/Ground (Archives)
Hamilton, Bermuda

Feed Status: UP
Listen in your browser - HTML5 player(in browser, HTML5)
Click here to listen with your own player(launches your MP3 player)

TXKF 220255Z 29026KT 9999 SCT036 BKN058 BKN070 16/09 Q1020

TXKF Flight Activity (Flightaware)

Listeners: 0 out of 1123 total

Bermuda CTAF: 122.800
Bermuda Ground/Clearance: 124.500
Bermuda Tower: 118.100

ZNY Bermuda Sector (Archives)
Hamilton, Bermuda

Feed Status: UP
Listen in your browser - HTML5 player(in browser, HTML5)
Click here to listen with your own player(launches your MP3 player)

TXKF 220255Z 29026KT 9999 SCT036 BKN058 BKN070 16/09 Q1020

TXKF Flight Activity (Flightaware)

Listeners: 0 out of 1123 total

New York Approach (Bermuda Sector) : 119.100
New York Center (Bermuda Sector): 128.500

MHLC Gnd/Twr/Center (Archives)
La Ceiba, Honduras

Feed Status: UP
Listen in your browser - HTML5 player(in browser, HTML5)
Click here to listen with your own player(launches your MP3 player)

MHLC 220200Z 22004KT 4000 -RA SCT004 SCT016 OVC070 18/18 Q1021 A3015 NOSIG

MHLC Flight Activity (Flightaware)

Listeners: 0 out of 1123 total

CENAMER: 123.900
CENAMER: 124.300
Goloson Ground: 121.900
Goloson Tower: 118.500
La Ceiba Radio: 128.900

MHRO Gnd/Twr/App/Center (Archives)
Roatan, Honduras

Feed Status: UP
Listen in your browser - HTML5 player(in browser, HTML5)
Click here to listen with your own player(launches your MP3 player)

MHRO 220300Z 36008KT 3000 -RA SCT020TCU OVC070 21/20 Q1020 A3012 NOSIG

MHRO Flight Activity (Flightaware)

Listeners: 0 out of 1123 total

CENAMER (Center): 124.300
La Ceiba Radio: 128.900
Roatan Ground: 121.600
Roatan Tower: 118.100

MHTG ATIS (Archives)
Tegucigalpa, Honduras

Feed Status: UP
Listen in your browser - HTML5 player(in browser, HTML5)
Click here to listen with your own player(launches your MP3 player)

MHTG 220300Z 02004KT 6000 VCSH FEW006 BKN022 14/13 Q1023 A3021 RERA NOSIG

MHTG Flight Activity (Flightaware)

Listeners: 0 out of 1123 total

Toncontin ATIS: 127.750

MHTG Gnd/Twr/App/Ctr/Ops (Archives)
Tegucigalpa, Honduras

Feed Status: UP
Listen in your browser - HTML5 player(in browser, HTML5)
Click here to listen with your own player(launches your MP3 player)

MHTG 220300Z 02004KT 6000 VCSH FEW006 BKN022 14/13 Q1023 A3021 RERA NOSIG

MHTG Flight Activity (Flightaware)

Listeners: 0 out of 1123 total

American Airlines Ops: 130.700
ARINC ACARS: 131.550
Cenamer Center: 123.900
Cenamer Center: 124.300
Cenamer Center: 124.100
CMP Ops: 129.925
Continental Airlines Ops: 129.925
FAH Ground: 122.900
Taca Ops: 131.300
Taca Ops Sal: 130.300
Tecnologias Unidas: 133.000
Tegucigalpa RDO: 126.700
Toncontin Approach: 119.100
Toncontin Ground: 121.900
Toncontin Tower: 118.700

MPMG Ground
Panama City, Panama

Feed Status: DOWN
Offline since: 2018-05-13 23:58:04 UTC

Gelabert Ground: 121.700

MPMG Tower
Panama City, Panama

Feed Status: DOWN
Offline since: 2018-05-13 23:58:04 UTC

Gelabert Tower: 118.300

MROC Del/Gnd/Twr (Archives)
San Jose, Costa Rica

Feed Status: UP
Listen in your browser - HTML5 player(in browser, HTML5)
Click here to listen with your own player(launches your MP3 player)

MROC 220300Z 09018G28KT CAVOK 22/08 A3003 NOSIG

MROC Flight Activity (Flightaware)

Listeners: 1 out of 1123 total

Coco Clearance Delivery/Ground: 121.900
Coco Tower: 118.600

MROC Del/Gnd/Twr/App/Center/Misc
San Jose, Costa Rica

Feed Status: DOWN
Offline since: 2019-01-17 15:29:03 UTC

MROC 220300Z 09018G28KT CAVOK 22/08 A3003 NOSIG

Central American Center (CENAMER Control): 124.100
Coco Center (Control over CR Airspace): 119.600
Coco Clearance Delivery: 121.300
Coco Ground: 121.900
Coco Terminal Control: 120.500
Coco Tower: 118.600
Coco UNICOM: 126.800
SYQ Ground: 121.700
SYQ Tower: 118.300

MSLP Gnd/Twr/App/Center (Archives)
San Salvador, El Salvador

Feed Status: UP
Listen in your browser - HTML5 player(in browser, HTML5)
Click here to listen with your own player(launches your MP3 player)

MSLP 220250Z 02011KT CAVOK 26/13 Q1013 A2994 NOSIG

MSLP Flight Activity (Flightaware)

Listeners: 0 out of 1123 total

Avianca Ops: 123.500
CCA: 119.300
CENAMER: 124.100
Comalapa Authorizations: 121.250
Comalapa Departure: 123.900
Comalapa Ground: 121.700
Comalapa Tower: 118.000
Compalapa Approach: 119.900
Ilopango Tower: 118.300
TACA Ops: 130.500